sensor_id;sensor_type;location;lat;lon;timestamp;P1;durP1;ratioP1;P2;durP2;ratioP2
10343;SDS011;5217;43.960;10.954;2024-02-23T00:01:52;6.30;;;3.72;;
10343;SDS011;5217;43.960;10.954;2024-02-23T00:04:20;6.45;;;3.83;;
10343;SDS011;5217;43.960;10.954;2024-02-23T00:06:49;6.07;;;3.67;;
10343;SDS011;5217;43.960;10.954;2024-02-23T00:09:19;6.57;;;3.65;;
10343;SDS011;5217;43.960;10.954;2024-02-23T00:11:47;9.15;;;4.60;;
10343;SDS011;5217;43.960;10.954;2024-02-23T00:14:16;5.65;;;3.40;;
10343;SDS011;5217;43.960;10.954;2024-02-23T00:16:45;7.75;;;3.90;;
10343;SDS011;5217;43.960;10.954;2024-02-23T00:19:13;9.48;;;3.95;;
10343;SDS011;5217;43.960;10.954;2024-02-23T00:21:44;10.10;;;3.88;;
10343;SDS011;5217;43.960;10.954;2024-02-23T00:24:16;5.85;;;3.70;;
10343;SDS011;5217;43.960;10.954;2024-02-23T00:26:49;7.13;;;3.70;;
10343;SDS011;5217;43.960;10.954;2024-02-23T00:29:18;6.55;;;3.45;;
10343;SDS011;5217;43.960;10.954;2024-02-23T00:31:48;6.72;;;3.50;;
10343;SDS011;5217;43.960;10.954;2024-02-23T00:34:17;5.53;;;3.58;;
10343;SDS011;5217;43.960;10.954;2024-02-23T00:36:45;7.20;;;3.92;;
10343;SDS011;5217;43.960;10.954;2024-02-23T00:39:15;6.65;;;3.72;;
10343;SDS011;5217;43.960;10.954;2024-02-23T00:41:43;6.43;;;3.60;;
10343;SDS011;5217;43.960;10.954;2024-02-23T00:44:13;6.63;;;3.63;;
10343;SDS011;5217;43.960;10.954;2024-02-23T00:46:42;7.13;;;4.00;;
10343;SDS011;5217;43.960;10.954;2024-02-23T00:49:10;9.48;;;3.90;;
10343;SDS011;5217;43.960;10.954;2024-02-23T00:51:39;8.93;;;3.95;;
10343;SDS011;5217;43.960;10.954;2024-02-23T00:54:07;6.38;;;3.47;;
10343;SDS011;5217;43.960;10.954;2024-02-23T00:56:36;7.97;;;4.22;;
10343;SDS011;5217;43.960;10.954;2024-02-23T00:59:18;9.80;;;3.80;;
10343;SDS011;5217;43.960;10.954;2024-02-23T01:01:47;12.43;;;4.68;;
10343;SDS011;5217;43.960;10.954;2024-02-23T01:04:15;10.00;;;4.97;;
10343;SDS011;5217;43.960;10.954;2024-02-23T01:06:44;10.98;;;4.80;;
10343;SDS011;5217;43.960;10.954;2024-02-23T01:09:12;8.32;;;4.03;;
10343;SDS011;5217;43.960;10.954;2024-02-23T01:11:42;8.52;;;4.22;;
10343;SDS011;5217;43.960;10.954;2024-02-23T01:14:12;10.27;;;4.35;;
10343;SDS011;5217;43.960;10.954;2024-02-23T01:16:42;11.45;;;4.35;;
10343;SDS011;5217;43.960;10.954;2024-02-23T01:19:11;9.63;;;4.38;;
10343;SDS011;5217;43.960;10.954;2024-02-23T01:21:42;8.27;;;4.22;;
10343;SDS011;5217;43.960;10.954;2024-02-23T01:24:11;7.30;;;4.10;;
10343;SDS011;5217;43.960;10.954;2024-02-23T01:26:40;9.05;;;4.00;;
10343;SDS011;5217;43.960;10.954;2024-02-23T01:29:08;7.80;;;3.78;;
10343;SDS011;5217;43.960;10.954;2024-02-23T01:31:38;7.70;;;3.88;;
10343;SDS011;5217;43.960;10.954;2024-02-23T01:34:08;11.43;;;4.22;;
10343;SDS011;5217;43.960;10.954;2024-02-23T01:36:36;8.50;;;3.83;;
10343;SDS011;5217;43.960;10.954;2024-02-23T01:39:05;9.40;;;4.85;;
10343;SDS011;5217;43.960;10.954;2024-02-23T01:41:34;8.05;;;4.40;;
10343;SDS011;5217;43.960;10.954;2024-02-23T01:44:03;8.07;;;4.00;;
10343;SDS011;5217;43.960;10.954;2024-02-23T01:46:31;9.38;;;4.70;;
10343;SDS011;5217;43.960;10.954;2024-02-23T01:49:00;9.52;;;4.28;;
10343;SDS011;5217;43.960;10.954;2024-02-23T01:51:31;9.50;;;4.53;;
10343;SDS011;5217;43.960;10.954;2024-02-23T01:54:00;10.77;;;4.93;;
10343;SDS011;5217;43.960;10.954;2024-02-23T01:56:29;10.45;;;4.82;;
10343;SDS011;5217;43.960;10.954;2024-02-23T01:58:59;8.37;;;4.70;;
10343;SDS011;5217;43.960;10.954;2024-02-23T02:01:29;7.78;;;4.00;;
10343;SDS011;5217;43.960;10.954;2024-02-23T02:03:58;7.87;;;4.20;;
10343;SDS011;5217;43.960;10.954;2024-02-23T02:06:26;8.35;;;4.05;;
10343;SDS011;5217;43.960;10.954;2024-02-23T02:08:56;7.30;;;4.18;;
10343;SDS011;5217;43.960;10.954;2024-02-23T02:11:25;8.23;;;4.10;;
10343;SDS011;5217;43.960;10.954;2024-02-23T02:13:53;7.75;;;4.18;;
10343;SDS011;5217;43.960;10.954;2024-02-23T02:16:22;10.55;;;4.30;;
10343;SDS011;5217;43.960;10.954;2024-02-23T02:18:50;6.60;;;3.88;;
10343;SDS011;5217;43.960;10.954;2024-02-23T02:21:19;7.07;;;4.20;;
10343;SDS011;5217;43.960;10.954;2024-02-23T02:23:50;8.18;;;4.20;;
10343;SDS011;5217;43.960;10.954;2024-02-23T02:26:19;6.65;;;3.97;;
10343;SDS011;5217;43.960;10.954;2024-02-23T02:28:48;9.07;;;4.40;;
10343;SDS011;5217;43.960;10.954;2024-02-23T02:31:16;7.55;;;4.20;;
10343;SDS011;5217;43.960;10.954;2024-02-23T02:33:44;8.00;;;4.30;;
10343;SDS011;5217;43.960;10.954;2024-02-23T02:36:13;8.85;;;4.13;;
10343;SDS011;5217;43.960;10.954;2024-02-23T02:38:42;7.93;;;4.23;;
10343;SDS011;5217;43.960;10.954;2024-02-23T02:41:10;6.85;;;3.63;;
10343;SDS011;5217;43.960;10.954;2024-02-23T02:43:40;6.45;;;3.72;;
10343;SDS011;5217;43.960;10.954;2024-02-23T02:46:08;10.15;;;4.40;;
10343;SDS011;5217;43.960;10.954;2024-02-23T02:48:37;7.97;;;4.30;;
10343;SDS011;5217;43.960;10.954;2024-02-23T02:51:05;7.47;;;3.97;;
10343;SDS011;5217;43.960;10.954;2024-02-23T02:53:33;8.80;;;4.03;;
10343;SDS011;5217;43.960;10.954;2024-02-23T02:56:05;8.20;;;4.20;;
10343;SDS011;5217;43.960;10.954;2024-02-23T02:58:34;6.57;;;3.87;;
10343;SDS011;5217;43.960;10.954;2024-02-23T03:01:04;5.63;;;3.63;;
10343;SDS011;5217;43.960;10.954;2024-02-23T03:03:32;7.22;;;3.70;;
10343;SDS011;5217;43.960;10.954;2024-02-23T03:06:01;9.52;;;4.40;;
10343;SDS011;5217;43.960;10.954;2024-02-23T03:08:29;7.55;;;4.50;;
10343;SDS011;5217;43.960;10.954;2024-02-23T03:10:58;8.60;;;4.53;;
10343;SDS011;5217;43.960;10.954;2024-02-23T03:13:27;7.78;;;4.45;;
10343;SDS011;5217;43.960;10.954;2024-02-23T03:15:55;9.23;;;4.50;;
10343;SDS011;5217;43.960;10.954;2024-02-23T03:18:25;8.50;;;4.43;;
10343;SDS011;5217;43.960;10.954;2024-02-23T03:20:54;8.13;;;4.30;;
10343;SDS011;5217;43.960;10.954;2024-02-23T03:23:22;9.65;;;4.50;;
10343;SDS011;5217;43.960;10.954;2024-02-23T03:25:51;8.60;;;4.22;;
10343;SDS011;5217;43.960;10.954;2024-02-23T03:28:19;9.32;;;4.00;;
10343;SDS011;5217;43.960;10.954;2024-02-23T03:30:48;8.18;;;4.70;;
10343;SDS011;5217;43.960;10.954;2024-02-23T03:33:16;9.90;;;4.78;;
10343;SDS011;5217;43.960;10.954;2024-02-23T03:35:46;7.85;;;4.40;;
10343;SDS011;5217;43.960;10.954;2024-02-23T03:38:14;9.17;;;4.70;;
10343;SDS011;5217;43.960;10.954;2024-02-23T03:40:43;10.03;;;4.50;;
10343;SDS011;5217;43.960;10.954;2024-02-23T03:43:11;10.20;;;4.13;;
10343;SDS011;5217;43.960;10.954;2024-02-23T03:45:40;9.93;;;4.20;;
10343;SDS011;5217;43.960;10.954;2024-02-23T03:48:08;6.55;;;3.72;;
10343;SDS011;5217;43.960;10.954;2024-02-23T03:50:36;10.40;;;4.40;;
10343;SDS011;5217;43.960;10.954;2024-02-23T03:53:06;10.90;;;4.40;;
10343;SDS011;5217;43.960;10.954;2024-02-23T03:55:35;9.55;;;4.18;;
10343;SDS011;5217;43.960;10.954;2024-02-23T03:58:03;9.73;;;4.57;;
10343;SDS011;5217;43.960;10.954;2024-02-23T04:00:32;7.35;;;3.95;;
10343;SDS011;5217;43.960;10.954;2024-02-23T04:03:00;9.57;;;4.43;;
10343;SDS011;5217;43.960;10.954;2024-02-23T04:05:29;10.05;;;4.10;;
10343;SDS011;5217;43.960;10.954;2024-02-23T04:07:57;10.02;;;4.40;;
10343;SDS011;5217;43.960;10.954;2024-02-23T04:10:27;7.03;;;3.78;;
10343;SDS011;5217;43.960;10.954;2024-02-23T04:12:57;7.28;;;3.78;;
10343;SDS011;5217;43.960;10.954;2024-02-23T04:15:25;8.65;;;3.92;;
10343;SDS011;5217;43.960;10.954;2024-02-23T04:17:53;7.95;;;3.92;;
10343;SDS011;5217;43.960;10.954;2024-02-23T04:20:22;10.55;;;4.38;;
10343;SDS011;5217;43.960;10.954;2024-02-23T04:22:50;7.93;;;3.92;;
10343;SDS011;5217;43.960;10.954;2024-02-23T04:25:19;5.63;;;3.70;;
10343;SDS011;5217;43.960;10.954;2024-02-23T04:27:48;7.23;;;3.80;;
10343;SDS011;5217;43.960;10.954;2024-02-23T04:30:17;6.67;;;4.00;;
10343;SDS011;5217;43.960;10.954;2024-02-23T04:32:45;8.73;;;3.97;;
10343;SDS011;5217;43.960;10.954;2024-02-23T04:35:14;8.83;;;4.00;;
10343;SDS011;5217;43.960;10.954;2024-02-23T04:37:43;7.22;;;3.92;;
10343;SDS011;5217;43.960;10.954;2024-02-23T04:40:12;7.15;;;3.72;;
10343;SDS011;5217;43.960;10.954;2024-02-23T04:42:40;7.68;;;3.80;;
10343;SDS011;5217;43.960;10.954;2024-02-23T04:45:12;7.40;;;4.30;;
10343;SDS011;5217;43.960;10.954;2024-02-23T04:47:40;9.77;;;4.35;;
10343;SDS011;5217;43.960;10.954;2024-02-23T04:50:09;5.70;;;3.92;;
10343;SDS011;5217;43.960;10.954;2024-02-23T04:52:38;8.07;;;4.05;;
10343;SDS011;5217;43.960;10.954;2024-02-23T04:55:06;7.28;;;4.38;;
10343;SDS011;5217;43.960;10.954;2024-02-23T04:57:36;8.50;;;4.65;;
10343;SDS011;5217;43.960;10.954;2024-02-23T05:00:05;10.65;;;4.40;;
10343;SDS011;5217;43.960;10.954;2024-02-23T05:02:36;8.07;;;4.45;;
10343;SDS011;5217;43.960;10.954;2024-02-23T05:05:05;8.13;;;4.35;;
10343;SDS011;5217;43.960;10.954;2024-02-23T05:07:34;8.52;;;4.35;;
10343;SDS011;5217;43.960;10.954;2024-02-23T05:10:03;9.05;;;4.05;;
10343;SDS011;5217;43.960;10.954;2024-02-23T05:12:32;6.38;;;3.85;;
10343;SDS011;5217;43.960;10.954;2024-02-23T05:15:00;6.95;;;4.15;;
10343;SDS011;5217;43.960;10.954;2024-02-23T05:17:29;6.15;;;3.70;;
10343;SDS011;5217;43.960;10.954;2024-02-23T05:19:59;7.40;;;4.40;;
10343;SDS011;5217;43.960;10.954;2024-02-23T05:22:33;6.28;;;3.67;;
10343;SDS011;5217;43.960;10.954;2024-02-23T05:25:01;8.52;;;4.07;;
10343;SDS011;5217;43.960;10.954;2024-02-23T05:27:31;9.32;;;4.40;;
10343;SDS011;5217;43.960;10.954;2024-02-23T05:29:59;9.52;;;4.00;;
10343;SDS011;5217;43.960;10.954;2024-02-23T05:32:27;9.20;;;4.10;;
10343;SDS011;5217;43.960;10.954;2024-02-23T05:34:56;8.50;;;4.32;;
10343;SDS011;5217;43.960;10.954;2024-02-23T05:37:26;6.80;;;4.00;;
10343;SDS011;5217;43.960;10.954;2024-02-23T05:39:54;8.55;;;4.07;;
10343;SDS011;5217;43.960;10.954;2024-02-23T05:42:26;6.33;;;3.80;;
10343;SDS011;5217;43.960;10.954;2024-02-23T05:44:54;10.45;;;4.25;;
10343;SDS011;5217;43.960;10.954;2024-02-23T05:47:23;7.60;;;4.03;;
10343;SDS011;5217;43.960;10.954;2024-02-23T05:49:52;5.40;;;3.70;;
10343;SDS011;5217;43.960;10.954;2024-02-23T05:52:20;7.20;;;3.45;;
10343;SDS011;5217;43.960;10.954;2024-02-23T05:54:50;7.22;;;3.90;;
10343;SDS011;5217;43.960;10.954;2024-02-23T05:57:22;9.48;;;4.38;;
10343;SDS011;5217;43.960;10.954;2024-02-23T05:59:50;7.97;;;4.18;;
10343;SDS011;5217;43.960;10.954;2024-02-23T06:02:18;7.93;;;4.00;;
10343;SDS011;5217;43.960;10.954;2024-02-23T06:04:47;7.75;;;3.90;;
10343;SDS011;5217;43.960;10.954;2024-02-23T06:07:15;9.00;;;4.10;;
10343;SDS011;5217;43.960;10.954;2024-02-23T06:09:44;9.73;;;4.10;;
10343;SDS011;5217;43.960;10.954;2024-02-23T06:12:14;9.90;;;4.18;;
10343;SDS011;5217;43.960;10.954;2024-02-23T06:14:42;7.40;;;4.03;;
10343;SDS011;5217;43.960;10.954;2024-02-23T06:17:11;9.60;;;5.15;;
10343;SDS011;5217;43.960;10.954;2024-02-23T06:19:39;9.60;;;4.38;;
10343;SDS011;5217;43.960;10.954;2024-02-23T06:22:08;9.45;;;4.53;;
10343;SDS011;5217;43.960;10.954;2024-02-23T06:24:38;6.25;;;3.90;;
10343;SDS011;5217;43.960;10.954;2024-02-23T06:27:06;9.93;;;4.35;;
10343;SDS011;5217;43.960;10.954;2024-02-23T06:29:36;8.13;;;3.95;;
10343;SDS011;5217;43.960;10.954;2024-02-23T06:32:05;7.95;;;4.50;;
10343;SDS011;5217;43.960;10.954;2024-02-23T06:34:34;8.35;;;4.05;;
10343;SDS011;5217;43.960;10.954;2024-02-23T06:37:02;7.45;;;3.95;;
10343;SDS011;5217;43.960;10.954;2024-02-23T06:39:32;9.35;;;4.00;;
10343;SDS011;5217;43.960;10.954;2024-02-23T06:42:00;8.25;;;3.90;;
10343;SDS011;5217;43.960;10.954;2024-02-23T06:44:30;7.10;;;4.35;;
10343;SDS011;5217;43.960;10.954;2024-02-23T06:47:00;6.53;;;4.40;;
10343;SDS011;5217;43.960;10.954;2024-02-23T06:49:29;6.75;;;3.83;;
10343;SDS011;5217;43.960;10.954;2024-02-23T06:51:58;6.88;;;4.05;;
10343;SDS011;5217;43.960;10.954;2024-02-23T06:54:26;7.03;;;4.10;;
10343;SDS011;5217;43.960;10.954;2024-02-23T06:56:55;7.75;;;4.38;;
10343;SDS011;5217;43.960;10.954;2024-02-23T06:59:24;8.40;;;4.20;;
10343;SDS011;5217;43.960;10.954;2024-02-23T07:01:53;9.30;;;4.60;;
10343;SDS011;5217;43.960;10.954;2024-02-23T07:04:23;7.83;;;5.00;;
10343;SDS011;5217;43.960;10.954;2024-02-23T07:06:53;8.23;;;5.40;;
10343;SDS011;5217;43.960;10.954;2024-02-23T07:09:22;7.90;;;5.80;;
10343;SDS011;5217;43.960;10.954;2024-02-23T07:11:50;10.98;;;6.18;;
10343;SDS011;5217;43.960;10.954;2024-02-23T07:14:19;8.18;;;5.90;;
10343;SDS011;5217;43.960;10.954;2024-02-23T07:16:48;9.00;;;5.50;;
10343;SDS011;5217;43.960;10.954;2024-02-23T07:19:18;9.80;;;5.53;;
10343;SDS011;5217;43.960;10.954;2024-02-23T07:21:48;7.17;;;4.87;;
10343;SDS011;5217;43.960;10.954;2024-02-23T07:24:17;6.93;;;4.65;;
10343;SDS011;5217;43.960;10.954;2024-02-23T07:26:46;9.15;;;5.43;;
10343;SDS011;5217;43.960;10.954;2024-02-23T07:29:14;7.80;;;5.32;;
10343;SDS011;5217;43.960;10.954;2024-02-23T07:31:44;8.18;;;5.07;;
10343;SDS011;5217;43.960;10.954;2024-02-23T07:34:13;8.68;;;5.53;;
10343;SDS011;5217;43.960;10.954;2024-02-23T07:36:41;7.25;;;5.30;;
10343;SDS011;5217;43.960;10.954;2024-02-23T07:39:11;7.33;;;5.20;;
10343;SDS011;5217;43.960;10.954;2024-02-23T07:41:41;10.00;;;5.50;;
10343;SDS011;5217;43.960;10.954;2024-02-23T07:44:09;14.00;;;6.90;;
10343;SDS011;5217;43.960;10.954;2024-02-23T07:46:38;10.60;;;6.97;;
10343;SDS011;5217;43.960;10.954;2024-02-23T07:49:06;10.98;;;5.45;;
10343;SDS011;5217;43.960;10.954;2024-02-23T07:51:36;10.57;;;6.47;;
10343;SDS011;5217;43.960;10.954;2024-02-23T07:54:04;11.57;;;5.70;;
10343;SDS011;5217;43.960;10.954;2024-02-23T07:56:34;10.50;;;5.57;;
10343;SDS011;5217;43.960;10.954;2024-02-23T07:59:02;9.40;;;5.65;;
10343;SDS011;5217;43.960;10.954;2024-02-23T08:01:31;10.87;;;5.10;;
10343;SDS011;5217;43.960;10.954;2024-02-23T08:04:00;12.48;;;5.43;;
10343;SDS011;5217;43.960;10.954;2024-02-23T08:06:29;14.00;;;5.95;;
10343;SDS011;5217;43.960;10.954;2024-02-23T08:08:58;14.82;;;5.97;;
10343;SDS011;5217;43.960;10.954;2024-02-23T08:11:27;11.80;;;5.70;;
10343;SDS011;5217;43.960;10.954;2024-02-23T08:13:59;12.50;;;5.57;;
10343;SDS011;5217;43.960;10.954;2024-02-23T08:16:29;11.23;;;5.80;;
10343;SDS011;5217;43.960;10.954;2024-02-23T08:18:57;9.95;;;5.05;;
10343;SDS011;5217;43.960;10.954;2024-02-23T08:21:26;10.98;;;5.90;;
10343;SDS011;5217;43.960;10.954;2024-02-23T08:23:54;11.23;;;5.43;;
10343;SDS011;5217;43.960;10.954;2024-02-23T08:26:23;12.32;;;5.75;;
10343;SDS011;5217;43.960;10.954;2024-02-23T08:28:51;12.45;;;6.22;;
10343;SDS011;5217;43.960;10.954;2024-02-23T08:31:21;13.32;;;6.30;;
10343;SDS011;5217;43.960;10.954;2024-02-23T08:33:49;12.20;;;6.30;;
10343;SDS011;5217;43.960;10.954;2024-02-23T08:36:18;12.05;;;6.07;;
10343;SDS011;5217;43.960;10.954;2024-02-23T08:38:46;10.75;;;6.03;;
10343;SDS011;5217;43.960;10.954;2024-02-23T08:41:14;13.32;;;6.25;;
10343;SDS011;5217;43.960;10.954;2024-02-23T08:43:43;13.65;;;6.43;;
10343;SDS011;5217;43.960;10.954;2024-02-23T08:46:12;11.02;;;6.53;;
10343;SDS011;5217;43.960;10.954;2024-02-23T08:48:42;10.80;;;5.43;;
10343;SDS011;5217;43.960;10.954;2024-02-23T08:51:10;11.30;;;5.78;;
10343;SDS011;5217;43.960;10.954;2024-02-23T08:53:39;12.20;;;6.40;;
10343;SDS011;5217;43.960;10.954;2024-02-23T08:56:07;16.25;;;6.35;;
10343;SDS011;5217;43.960;10.954;2024-02-23T08:58:36;13.02;;;5.97;;
10343;SDS011;5217;43.960;10.954;2024-02-23T09:01:04;15.32;;;6.78;;
10343;SDS011;5217;43.960;10.954;2024-02-23T09:03:33;16.08;;;9.27;;
10343;SDS011;5217;43.960;10.954;2024-02-23T09:06:03;14.27;;;8.53;;
10343;SDS011;5217;43.960;10.954;2024-02-23T09:08:32;11.82;;;7.10;;
10343;SDS011;5217;43.960;10.954;2024-02-23T09:11:01;12.57;;;6.35;;
10343;SDS011;5217;43.960;10.954;2024-02-23T09:13:29;10.10;;;6.28;;
10343;SDS011;5217;43.960;10.954;2024-02-23T09:15:57;11.27;;;6.50;;
10343;SDS011;5217;43.960;10.954;2024-02-23T09:18:26;16.60;;;7.53;;
10343;SDS011;5217;43.960;10.954;2024-02-23T09:20:54;16.33;;;7.60;;
10343;SDS011;5217;43.960;10.954;2024-02-23T09:23:24;18.10;;;11.18;;
10343;SDS011;5217;43.960;10.954;2024-02-23T09:25:53;13.70;;;8.80;;
10343;SDS011;5217;43.960;10.954;2024-02-23T09:28:21;13.07;;;7.73;;
10343;SDS011;5217;43.960;10.954;2024-02-23T09:30:50;14.25;;;7.72;;
10343;SDS011;5217;43.960;10.954;2024-02-23T09:33:21;11.07;;;7.00;;
10343;SDS011;5217;43.960;10.954;2024-02-23T09:35:49;11.68;;;7.75;;
10343;SDS011;5217;43.960;10.954;2024-02-23T09:38:18;14.63;;;7.83;;
10343;SDS011;5217;43.960;10.954;2024-02-23T09:40:48;11.17;;;6.90;;
10343;SDS011;5217;43.960;10.954;2024-02-23T09:43:16;12.20;;;8.37;;
10343;SDS011;5217;43.960;10.954;2024-02-23T09:45:45;11.77;;;7.60;;
10343;SDS011;5217;43.960;10.954;2024-02-23T09:48:14;13.67;;;7.90;;
10343;SDS011;5217;43.960;10.954;2024-02-23T09:50:45;12.67;;;7.67;;
10343;SDS011;5217;43.960;10.954;2024-02-23T09:53:15;13.53;;;8.33;;
10343;SDS011;5217;43.960;10.954;2024-02-23T09:55:48;17.10;;;10.47;;
10343;SDS011;5217;43.960;10.954;2024-02-23T09:58:19;16.48;;;12.05;;
10343;SDS011;5217;43.960;10.954;2024-02-23T10:00:48;33.58;;;22.88;;
10343;SDS011;5217;43.960;10.954;2024-02-23T10:03:17;26.67;;;18.60;;
10343;SDS011;5217;43.960;10.954;2024-02-23T10:05:46;20.60;;;14.43;;
10343;SDS011;5217;43.960;10.954;2024-02-23T10:08:14;18.20;;;11.50;;
10343;SDS011;5217;43.960;10.954;2024-02-23T10:10:45;14.23;;;9.20;;
10343;SDS011;5217;43.960;10.954;2024-02-23T10:13:19;15.15;;;8.40;;
10343;SDS011;5217;43.960;10.954;2024-02-23T10:15:48;15.85;;;7.45;;
10343;SDS011;5217;43.960;10.954;2024-02-23T10:18:37;10.95;;;5.85;;
10343;SDS011;5217;43.960;10.954;2024-02-23T10:21:06;13.57;;;6.20;;
10343;SDS011;5217;43.960;10.954;2024-02-23T10:23:35;11.10;;;5.67;;
10343;SDS011;5217;43.960;10.954;2024-02-23T10:26:04;11.20;;;5.47;;
10343;SDS011;5217;43.960;10.954;2024-02-23T10:28:35;11.13;;;5.57;;
10343;SDS011;5217;43.960;10.954;2024-02-23T10:31:05;12.85;;;5.82;;
10343;SDS011;5217;43.960;10.954;2024-02-23T10:33:38;14.88;;;6.00;;
10343;SDS011;5217;43.960;10.954;2024-02-23T10:36:08;12.05;;;6.32;;
10343;SDS011;5217;43.960;10.954;2024-02-23T10:38:39;13.93;;;8.55;;
10343;SDS011;5217;43.960;10.954;2024-02-23T10:41:09;13.02;;;6.88;;
10343;SDS011;5217;43.960;10.954;2024-02-23T10:43:43;13.05;;;6.32;;
10343;SDS011;5217;43.960;10.954;2024-02-23T10:46:14;11.20;;;5.50;;
10343;SDS011;5217;43.960;10.954;2024-02-23T10:48:44;9.77;;;5.07;;
10343;SDS011;5217;43.960;10.954;2024-02-23T10:51:13;10.52;;;4.97;;
10343;SDS011;5217;43.960;10.954;2024-02-23T10:53:46;13.57;;;7.68;;
10343;SDS011;5217;43.960;10.954;2024-02-23T10:56:16;10.75;;;5.30;;
10343;SDS011;5217;43.960;10.954;2024-02-23T10:58:46;12.07;;;5.43;;
10343;SDS011;5217;43.960;10.954;2024-02-23T11:01:14;15.63;;;6.57;;
10343;SDS011;5217;43.960;10.954;2024-02-23T11:03:44;12.30;;;5.97;;
10343;SDS011;5217;43.960;10.954;2024-02-23T11:06:17;12.20;;;5.40;;
10343;SDS011;5217;43.960;10.954;2024-02-23T11:08:48;6.03;;;3.43;;
10343;SDS011;5217;43.960;10.954;2024-02-23T11:11:17;5.13;;;2.93;;
10343;SDS011;5217;43.960;10.954;2024-02-23T11:13:47;5.60;;;3.17;;
10343;SDS011;5217;43.960;10.954;2024-02-23T11:16:20;5.73;;;2.90;;
10343;SDS011;5217;43.960;10.954;2024-02-23T11:18:50;3.00;;;1.87;;
10343;SDS011;5217;43.960;10.954;2024-02-23T11:21:34;3.73;;;1.70;;
10343;SDS011;5217;43.960;10.954;2024-02-23T11:24:04;2.43;;;2.23;;
10343;SDS011;5217;43.960;10.954;2024-02-23T11:26:33;4.40;;;2.93;;
10343;SDS011;5217;43.960;10.954;2024-02-23T11:29:10;2.40;;;2.20;;
10343;SDS011;5217;43.960;10.954;2024-02-23T11:31:44;2.70;;;2.50;;
10343;SDS011;5217;43.960;10.954;2024-02-23T11:34:16;2.90;;;2.30;;
10343;SDS011;5217;43.960;10.954;2024-02-23T11:36:51;3.13;;;1.63;;
10343;SDS011;5217;43.960;10.954;2024-02-23T11:39:20;3.07;;;1.87;;
10343;SDS011;5217;43.960;10.954;2024-02-23T11:41:49;2.07;;;1.60;;
10343;SDS011;5217;43.960;10.954;2024-02-23T11:44:19;2.90;;;1.43;;
10343;SDS011;5217;43.960;10.954;2024-02-23T11:46:47;2.57;;;1.40;;
10343;SDS011;5217;43.960;10.954;2024-02-23T11:49:15;2.50;;;1.60;;
10343;SDS011;5217;43.960;10.954;2024-02-23T11:51:44;2.40;;;1.60;;
10343;SDS011;5217;43.960;10.954;2024-02-23T11:54:13;2.73;;;1.70;;
10343;SDS011;5217;43.960;10.954;2024-02-23T11:56:42;3.27;;;2.20;;
10343;SDS011;5217;43.960;10.954;2024-02-23T11:59:10;2.47;;;1.90;;
10343;SDS011;5217;43.960;10.954;2024-02-23T12:01:40;2.90;;;2.30;;
10343;SDS011;5217;43.960;10.954;2024-02-23T12:04:09;4.63;;;2.60;;
10343;SDS011;5217;43.960;10.954;2024-02-23T12:06:37;3.40;;;1.80;;
10343;SDS011;5217;43.960;10.954;2024-02-23T12:09:05;2.73;;;1.73;;
10343;SDS011;5217;43.960;10.954;2024-02-23T12:11:34;3.17;;;1.77;;
10343;SDS011;5217;43.960;10.954;2024-02-23T12:14:03;4.33;;;1.70;;
10343;SDS011;5217;43.960;10.954;2024-02-23T12:16:34;2.80;;;1.70;;
10343;SDS011;5217;43.960;10.954;2024-02-23T12:19:04;3.50;;;1.70;;
10343;SDS011;5217;43.960;10.954;2024-02-23T12:21:34;2.47;;;1.90;;
10343;SDS011;5217;43.960;10.954;2024-02-23T12:24:04;2.17;;;1.63;;
10343;SDS011;5217;43.960;10.954;2024-02-23T12:26:34;3.37;;;1.80;;
10343;SDS011;5217;43.960;10.954;2024-02-23T12:29:02;1.93;;;1.43;;
10343;SDS011;5217;43.960;10.954;2024-02-23T12:31:31;2.97;;;1.90;;
10343;SDS011;5217;43.960;10.954;2024-02-23T12:34:01;2.77;;;1.90;;
10343;SDS011;5217;43.960;10.954;2024-02-23T12:36:31;5.60;;;2.80;;
10343;SDS011;5217;43.960;10.954;2024-02-23T12:39:01;5.83;;;3.30;;
10343;SDS011;5217;43.960;10.954;2024-02-23T12:41:30;5.07;;;2.77;;
10343;SDS011;5217;43.960;10.954;2024-02-23T12:43:59;5.30;;;2.03;;
10343;SDS011;5217;43.960;10.954;2024-02-23T12:46:27;3.00;;;1.97;;
10343;SDS011;5217;43.960;10.954;2024-02-23T12:48:56;4.27;;;2.57;;
10343;SDS011;5217;43.960;10.954;2024-02-23T12:51:24;6.67;;;4.23;;
10343;SDS011;5217;43.960;10.954;2024-02-23T12:53:55;8.10;;;6.30;;
10343;SDS011;5217;43.960;10.954;2024-02-23T12:56:23;12.17;;;10.30;;
10343;SDS011;5217;43.960;10.954;2024-02-23T12:58:52;14.47;;;11.07;;
10343;SDS011;5217;43.960;10.954;2024-02-23T13:01:20;12.70;;;10.63;;
10343;SDS011;5217;43.960;10.954;2024-02-23T13:03:49;6.87;;;5.83;;
10343;SDS011;5217;43.960;10.954;2024-02-23T13:06:18;7.17;;;4.00;;
10343;SDS011;5217;43.960;10.954;2024-02-23T13:08:46;4.20;;;2.67;;
10343;SDS011;5217;43.960;10.954;2024-02-23T13:11:16;6.20;;;2.87;;
10343;SDS011;5217;43.960;10.954;2024-02-23T13:13:44;3.20;;;2.10;;
10343;SDS011;5217;43.960;10.954;2024-02-23T13:16:14;2.93;;;1.80;;
10343;SDS011;5217;43.960;10.954;2024-02-23T13:18:42;3.50;;;1.90;;
10343;SDS011;5217;43.960;10.954;2024-02-23T13:21:13;2.60;;;1.93;;
10343;SDS011;5217;43.960;10.954;2024-02-23T13:23:42;2.37;;;1.87;;
10343;SDS011;5217;43.960;10.954;2024-02-23T13:26:10;3.90;;;2.40;;
10343;SDS011;5217;43.960;10.954;2024-02-23T13:28:42;2.33;;;1.80;;
10343;SDS011;5217;43.960;10.954;2024-02-23T13:31:11;2.97;;;1.77;;
10343;SDS011;5217;43.960;10.954;2024-02-23T13:33:41;3.30;;;2.13;;
10343;SDS011;5217;43.960;10.954;2024-02-23T13:36:10;4.90;;;3.33;;
10343;SDS011;5217;43.960;10.954;2024-02-23T13:38:39;6.80;;;5.07;;
10343;SDS011;5217;43.960;10.954;2024-02-23T13:41:08;6.47;;;5.60;;
10343;SDS011;5217;43.960;10.954;2024-02-23T13:43:38;5.53;;;3.87;;
10343;SDS011;5217;43.960;10.954;2024-02-23T13:46:08;3.47;;;2.80;;
10343;SDS011;5217;43.960;10.954;2024-02-23T13:48:36;4.30;;;3.60;;
10343;SDS011;5217;43.960;10.954;2024-02-23T13:51:05;3.80;;;3.40;;
10343;SDS011;5217;43.960;10.954;2024-02-23T13:53:33;4.77;;;4.27;;
10343;SDS011;5217;43.960;10.954;2024-02-23T13:56:04;4.97;;;4.53;;
10343;SDS011;5217;43.960;10.954;2024-02-23T13:58:33;2.93;;;2.73;;
10343;SDS011;5217;43.960;10.954;2024-02-23T14:01:01;2.13;;;1.90;;
10343;SDS011;5217;43.960;10.954;2024-02-23T14:03:31;1.93;;;1.80;;
10343;SDS011;5217;43.960;10.954;2024-02-23T14:06:00;3.43;;;2.30;;
10343;SDS011;5217;43.960;10.954;2024-02-23T14:08:28;3.83;;;3.10;;
10343;SDS011;5217;43.960;10.954;2024-02-23T14:11:00;6.43;;;5.40;;
10343;SDS011;5217;43.960;10.954;2024-02-23T14:13:29;4.70;;;4.27;;
10343;SDS011;5217;43.960;10.954;2024-02-23T14:15:57;3.67;;;3.30;;
10343;SDS011;5217;43.960;10.954;2024-02-23T14:18:27;2.83;;;2.30;;
10343;SDS011;5217;43.960;10.954;2024-02-23T14:20:57;3.97;;;3.67;;
10343;SDS011;5217;43.960;10.954;2024-02-23T14:23:26;4.93;;;4.53;;
10343;SDS011;5217;43.960;10.954;2024-02-23T14:25:54;5.33;;;4.60;;
10343;SDS011;5217;43.960;10.954;2024-02-23T14:28:23;7.50;;;6.80;;
10343;SDS011;5217;43.960;10.954;2024-02-23T14:30:51;5.27;;;4.87;;
10343;SDS011;5217;43.960;10.954;2024-02-23T14:33:20;3.73;;;3.43;;
10343;SDS011;5217;43.960;10.954;2024-02-23T14:35:49;3.10;;;2.90;;
10343;SDS011;5217;43.960;10.954;2024-02-23T14:38:19;3.10;;;2.90;;
10343;SDS011;5217;43.960;10.954;2024-02-23T14:40:47;2.73;;;2.53;;
10343;SDS011;5217;43.960;10.954;2024-02-23T14:43:16;1.77;;;1.67;;
10343;SDS011;5217;43.960;10.954;2024-02-23T14:45:44;1.70;;;1.60;;
10343;SDS011;5217;43.960;10.954;2024-02-23T14:48:12;1.90;;;1.80;;
10343;SDS011;5217;43.960;10.954;2024-02-23T14:50:41;3.80;;;3.37;;
10343;SDS011;5217;43.960;10.954;2024-02-23T14:53:09;4.47;;;3.83;;
10343;SDS011;5217;43.960;10.954;2024-02-23T14:55:40;3.40;;;3.10;;